Maldives Meteorological Service

TAFS

Station TAF
VRMM
VRMM 12100Z 1212/1318 30006KT 5000 HZ FEW018 TEMPO 1212/1218 4000 HZ FEW018CB=
VRMH
VRMH 121100Z 1212/1312 01007KT 7000 FEW018 TEMPO 1212/1218 4000 HZ=
VRMK
VRMK 121100Z 1212/1312 22010KT 7000 FEW018 TEMPO 1214/1221 4000 -SHRA FEW018CB=
VRMT
VRMT 121100Z 1212/1312 25009KT 9000 FEW018 TEMPO 1212/1218 5000 –SHRA FEW017CB=
VRMG
VRMG 121100Z 1212/1318 30006KT 9000 HZ FEW018 TEMPO 1212/1218 4000 TSRA FEW017CB=